Portada
METAR-TAF:

METAR-TAF

Aeroports :

Bangkok, Tailàndia

latitud: 13-54-45N, longitud: 100-36-24E, altitud: 4 m

Observació

L'informe es va fer fa 16 minuts, a les 18:30 UTC
Vent 4 kt del Est/Nord-Est
Temperatura 25°C
Humitat 83%
Pressió 1013 hPa
Visibilitat 10 km o més
Escasses núvols a una alçada de 3000 ft

METAR: VTBD 211830Z 07004KT 9999 FEW030 25/22 Q1013 NOSIG

Hora: 01:46 (18:46 UTC)

Pronòstic

L'informe es va fer fa 1 hora i 46 minuts, a les 17:00 UTC
Pronòstic vàlid del 21 a les 18 UTC al 22 a les 24 UTC
Vent 5 kt del Est
Visibilitat 10 km o més
Escasses núvols a una alçada de 3000 ft

TAF: VTBD 211700Z 2118/2224 08005KT 9999 FEW030

Observacions i pronòstics meteorològics de més de 4000 aeroports (METAR i TAF).

Les estacions disponibles són els punts grocs i vermells al mapa.

Posi el ratolí al punt desitjat per veure el nom de l'estació.

Feu clic per veure les observacions i els pronòstics meteorològics.

Per canviar el mapa: feu clic els botons verds amb una creu de color negre per apropar; al botó verd amb un guió per allunyar la imatge; o en les fletxes verdes per a mapes adjacents.


METAR-TAF: